Terminal Aerodrome Forecast
Issued by NWS

Home | Current Version | Previous Version | Text Only | Print | Product List | Glossary On
Versions: 1 2 3 4 5 6 7 8 9 10 11 12 13 14
000
FTUS45 KREV 080540
TAFMMH
TAF
KMMH 080540Z 0806/0906 VRB04KT P6SM VCSH SCT035 OVC050
     FM080800 24008KT 3SM -SN SCT020 OVC030
     FM081800 23012G21KT P6SM -SHRA SCT025 BKN040
     FM090000 25011G20KT P6SM VCSH SCT040 BKN060=

USA.gov is the U.S. government's official web portal to all federal, state and local government web resources and services.